sensor_id;sensor_type;location;lat;lon;timestamp;temperature;humidity
51567;DHT22;37657;53.182;5.638;2024-03-06T00:00:57;5.90;99.90
51567;DHT22;37657;53.182;5.638;2024-03-06T00:03:23;5.90;99.90
51567;DHT22;37657;53.182;5.638;2024-03-06T00:05:48;5.70;99.90
51567;DHT22;37657;53.182;5.638;2024-03-06T00:08:14;5.60;99.90
51567;DHT22;37657;53.182;5.638;2024-03-06T00:10:41;5.80;99.90
51567;DHT22;37657;53.182;5.638;2024-03-06T00:13:07;5.70;99.90
51567;DHT22;37657;53.182;5.638;2024-03-06T00:15:33;5.80;99.90
51567;DHT22;37657;53.182;5.638;2024-03-06T00:17:59;6.00;99.90
51567;DHT22;37657;53.182;5.638;2024-03-06T00:20:25;5.90;99.90
51567;DHT22;37657;53.182;5.638;2024-03-06T00:22:51;5.60;99.90
51567;DHT22;37657;53.182;5.638;2024-03-06T00:25:17;5.80;99.90
51567;DHT22;37657;53.182;5.638;2024-03-06T00:27:42;5.80;99.90
51567;DHT22;37657;53.182;5.638;2024-03-06T00:30:08;5.70;99.90
51567;DHT22;37657;53.182;5.638;2024-03-06T00:32:34;5.80;99.90
51567;DHT22;37657;53.182;5.638;2024-03-06T00:35:00;5.70;99.90
51567;DHT22;37657;53.182;5.638;2024-03-06T00:37:26;5.70;99.90
51567;DHT22;37657;53.182;5.638;2024-03-06T00:39:51;5.70;99.90
51567;DHT22;37657;53.182;5.638;2024-03-06T00:42:17;5.90;99.90
51567;DHT22;37657;53.182;5.638;2024-03-06T00:44:43;5.80;99.90
51567;DHT22;37657;53.182;5.638;2024-03-06T00:47:08;5.60;99.90
51567;DHT22;37657;53.182;5.638;2024-03-06T00:49:34;5.80;99.90
51567;DHT22;37657;53.182;5.638;2024-03-06T00:51:59;5.60;99.90
51567;DHT22;37657;53.182;5.638;2024-03-06T00:54:25;5.70;99.90
51567;DHT22;37657;53.182;5.638;2024-03-06T00:56:51;5.60;99.90
51567;DHT22;37657;53.182;5.638;2024-03-06T00:59:16;5.90;99.90
51567;DHT22;37657;53.182;5.638;2024-03-06T01:01:42;5.60;99.90
51567;DHT22;37657;53.182;5.638;2024-03-06T01:04:07;5.60;99.90
51567;DHT22;37657;53.182;5.638;2024-03-06T01:06:33;5.60;99.90
51567;DHT22;37657;53.182;5.638;2024-03-06T01:08:59;5.60;99.90
51567;DHT22;37657;53.182;5.638;2024-03-06T01:11:25;5.50;99.90
51567;DHT22;37657;53.182;5.638;2024-03-06T01:13:52;5.60;99.90
51567;DHT22;37657;53.182;5.638;2024-03-06T01:16:17;5.60;99.90
51567;DHT22;37657;53.182;5.638;2024-03-06T01:18:43;5.50;99.90
51567;DHT22;37657;53.182;5.638;2024-03-06T01:21:09;5.60;99.90
51567;DHT22;37657;53.182;5.638;2024-03-06T01:23:34;5.40;99.90
51567;DHT22;37657;53.182;5.638;2024-03-06T01:26:00;5.40;99.90
51567;DHT22;37657;53.182;5.638;2024-03-06T01:28:26;5.50;99.90
51567;DHT22;37657;53.182;5.638;2024-03-06T01:30:51;5.50;99.90
51567;DHT22;37657;53.182;5.638;2024-03-06T01:33:17;5.40;99.90
51567;DHT22;37657;53.182;5.638;2024-03-06T01:35:43;6.00;99.90
51567;DHT22;37657;53.182;5.638;2024-03-06T01:38:08;5.90;99.90
51567;DHT22;37657;53.182;5.638;2024-03-06T01:40:35;5.40;99.90
51567;DHT22;37657;53.182;5.638;2024-03-06T01:43:01;5.40;99.90
51567;DHT22;37657;53.182;5.638;2024-03-06T01:45:27;5.40;99.90
51567;DHT22;37657;53.182;5.638;2024-03-06T01:47:52;5.40;99.90
51567;DHT22;37657;53.182;5.638;2024-03-06T01:50:18;5.40;99.90
51567;DHT22;37657;53.182;5.638;2024-03-06T01:52:44;5.40;99.90
51567;DHT22;37657;53.182;5.638;2024-03-06T01:55:12;5.50;99.90
51567;DHT22;37657;53.182;5.638;2024-03-06T01:57:39;5.30;99.90
51567;DHT22;37657;53.182;5.638;2024-03-06T02:00:06;5.40;99.90
51567;DHT22;37657;53.182;5.638;2024-03-06T02:02:34;5.30;99.90
51567;DHT22;37657;53.182;5.638;2024-03-06T02:04:59;5.40;99.90
51567;DHT22;37657;53.182;5.638;2024-03-06T02:07:25;5.40;99.90
51567;DHT22;37657;53.182;5.638;2024-03-06T02:09:51;5.40;99.90
51567;DHT22;37657;53.182;5.638;2024-03-06T02:12:17;5.40;99.90
51567;DHT22;37657;53.182;5.638;2024-03-06T02:14:43;5.40;99.90
51567;DHT22;37657;53.182;5.638;2024-03-06T02:17:09;5.40;99.90
51567;DHT22;37657;53.182;5.638;2024-03-06T02:19:39;5.40;99.90
51567;DHT22;37657;53.182;5.638;2024-03-06T02:22:06;5.40;99.90
51567;DHT22;37657;53.182;5.638;2024-03-06T02:24:31;5.40;99.90
51567;DHT22;37657;53.182;5.638;2024-03-06T02:26:57;5.30;99.90
51567;DHT22;37657;53.182;5.638;2024-03-06T02:29:26;5.30;99.90
51567;DHT22;37657;53.182;5.638;2024-03-06T02:31:51;5.30;99.90
51567;DHT22;37657;53.182;5.638;2024-03-06T02:34:17;5.20;99.90
51567;DHT22;37657;53.182;5.638;2024-03-06T02:36:43;5.30;99.90
51567;DHT22;37657;53.182;5.638;2024-03-06T02:39:08;5.30;99.90
51567;DHT22;37657;53.182;5.638;2024-03-06T02:41:37;5.20;99.90
51567;DHT22;37657;53.182;5.638;2024-03-06T02:44:03;5.30;99.90
51567;DHT22;37657;53.182;5.638;2024-03-06T02:46:29;5.20;99.90
51567;DHT22;37657;53.182;5.638;2024-03-06T02:48:55;5.30;99.90
51567;DHT22;37657;53.182;5.638;2024-03-06T02:51:21;5.20;99.90
51567;DHT22;37657;53.182;5.638;2024-03-06T02:53:47;5.30;99.90
51567;DHT22;37657;53.182;5.638;2024-03-06T02:56:20;5.30;99.90
51567;DHT22;37657;53.182;5.638;2024-03-06T02:58:46;5.50;99.90
51567;DHT22;37657;53.182;5.638;2024-03-06T03:01:13;5.30;99.90
51567;DHT22;37657;53.182;5.638;2024-03-06T03:03:42;5.60;99.90
51567;DHT22;37657;53.182;5.638;2024-03-06T03:06:08;5.10;99.90
51567;DHT22;37657;53.182;5.638;2024-03-06T03:08:33;5.20;99.90
51567;DHT22;37657;53.182;5.638;2024-03-06T03:10:59;5.30;99.90
51567;DHT22;37657;53.182;5.638;2024-03-06T03:13:25;5.20;99.90
51567;DHT22;37657;53.182;5.638;2024-03-06T03:15:50;5.30;99.90
51567;DHT22;37657;53.182;5.638;2024-03-06T03:18:16;5.20;99.90
51567;DHT22;37657;53.182;5.638;2024-03-06T03:20:42;5.20;99.90
51567;DHT22;37657;53.182;5.638;2024-03-06T03:23:08;5.10;99.90
51567;DHT22;37657;53.182;5.638;2024-03-06T03:25:37;5.20;99.90
51567;DHT22;37657;53.182;5.638;2024-03-06T03:28:03;5.70;99.90
51567;DHT22;37657;53.182;5.638;2024-03-06T03:30:29;5.20;99.90
51567;DHT22;37657;53.182;5.638;2024-03-06T03:32:54;5.20;99.90
51567;DHT22;37657;53.182;5.638;2024-03-06T03:35:20;5.10;99.90
51567;DHT22;37657;53.182;5.638;2024-03-06T03:37:51;5.20;99.90
51567;DHT22;37657;53.182;5.638;2024-03-06T03:40:17;5.20;99.90
51567;DHT22;37657;53.182;5.638;2024-03-06T03:42:46;5.20;99.90
51567;DHT22;37657;53.182;5.638;2024-03-06T03:45:12;5.10;99.90
51567;DHT22;37657;53.182;5.638;2024-03-06T03:47:37;5.30;99.90
51567;DHT22;37657;53.182;5.638;2024-03-06T03:50:03;5.20;99.90
51567;DHT22;37657;53.182;5.638;2024-03-06T03:52:29;5.20;99.90
51567;DHT22;37657;53.182;5.638;2024-03-06T03:54:55;5.20;99.90
51567;DHT22;37657;53.182;5.638;2024-03-06T03:57:21;5.20;99.90
51567;DHT22;37657;53.182;5.638;2024-03-06T03:59:46;5.20;99.90
51567;DHT22;37657;53.182;5.638;2024-03-06T04:02:12;5.20;99.90
51567;DHT22;37657;53.182;5.638;2024-03-06T04:04:37;5.10;99.90
51567;DHT22;37657;53.182;5.638;2024-03-06T04:07:03;5.20;99.90
51567;DHT22;37657;53.182;5.638;2024-03-06T04:09:32;5.10;99.90
51567;DHT22;37657;53.182;5.638;2024-03-06T04:11:57;5.20;99.90
51567;DHT22;37657;53.182;5.638;2024-03-06T04:14:23;5.60;99.90
51567;DHT22;37657;53.182;5.638;2024-03-06T04:16:50;5.30;99.90
51567;DHT22;37657;53.182;5.638;2024-03-06T04:19:15;5.20;99.90
51567;DHT22;37657;53.182;5.638;2024-03-06T04:21:44;5.10;99.90
51567;DHT22;37657;53.182;5.638;2024-03-06T04:24:10;5.20;99.90
51567;DHT22;37657;53.182;5.638;2024-03-06T04:26:36;5.20;99.90
51567;DHT22;37657;53.182;5.638;2024-03-06T04:29:02;5.20;99.90
51567;DHT22;37657;53.182;5.638;2024-03-06T04:31:28;5.10;99.90
51567;DHT22;37657;53.182;5.638;2024-03-06T04:33:54;5.20;99.90
51567;DHT22;37657;53.182;5.638;2024-03-06T04:36:19;5.10;99.90
51567;DHT22;37657;53.182;5.638;2024-03-06T04:38:45;5.10;99.90
51567;DHT22;37657;53.182;5.638;2024-03-06T04:41:11;5.20;99.90
51567;DHT22;37657;53.182;5.638;2024-03-06T04:43:36;5.10;99.90
51567;DHT22;37657;53.182;5.638;2024-03-06T04:46:03;5.10;99.90
51567;DHT22;37657;53.182;5.638;2024-03-06T04:48:29;5.00;99.90
51567;DHT22;37657;53.182;5.638;2024-03-06T04:50:55;5.10;99.90
51567;DHT22;37657;53.182;5.638;2024-03-06T04:53:20;5.00;99.90
51567;DHT22;37657;53.182;5.638;2024-03-06T04:55:46;5.10;99.90
51567;DHT22;37657;53.182;5.638;2024-03-06T04:58:12;5.10;99.90
51567;DHT22;37657;53.182;5.638;2024-03-06T05:00:38;5.00;99.90
51567;DHT22;37657;53.182;5.638;2024-03-06T05:03:04;5.10;99.90
51567;DHT22;37657;53.182;5.638;2024-03-06T05:05:30;5.10;99.90
51567;DHT22;37657;53.182;5.638;2024-03-06T05:07:57;5.10;99.90
51567;DHT22;37657;53.182;5.638;2024-03-06T05:10:23;5.10;99.90
51567;DHT22;37657;53.182;5.638;2024-03-06T05:12:48;5.30;99.90
51567;DHT22;37657;53.182;5.638;2024-03-06T05:15:14;5.10;99.90
51567;DHT22;37657;53.182;5.638;2024-03-06T05:17:40;5.10;99.90
51567;DHT22;37657;53.182;5.638;2024-03-06T05:20:06;5.20;99.90
51567;DHT22;37657;53.182;5.638;2024-03-06T05:22:32;5.20;99.90
51567;DHT22;37657;53.182;5.638;2024-03-06T05:24:57;5.10;99.90
51567;DHT22;37657;53.182;5.638;2024-03-06T05:27:24;5.10;99.90
51567;DHT22;37657;53.182;5.638;2024-03-06T05:29:50;5.20;99.90
51567;DHT22;37657;53.182;5.638;2024-03-06T05:32:15;5.30;99.90
51567;DHT22;37657;53.182;5.638;2024-03-06T05:34:41;5.90;99.90
51567;DHT22;37657;53.182;5.638;2024-03-06T05:37:07;5.20;99.90
51567;DHT22;37657;53.182;5.638;2024-03-06T05:39:33;5.20;99.90
51567;DHT22;37657;53.182;5.638;2024-03-06T05:42:03;5.20;99.90
51567;DHT22;37657;53.182;5.638;2024-03-06T05:44:32;5.20;99.90
51567;DHT22;37657;53.182;5.638;2024-03-06T05:46:59;5.10;99.90
51567;DHT22;37657;53.182;5.638;2024-03-06T05:49:25;5.10;99.90
51567;DHT22;37657;53.182;5.638;2024-03-06T05:51:51;5.30;99.90
51567;DHT22;37657;53.182;5.638;2024-03-06T05:54:16;5.40;99.90
51567;DHT22;37657;53.182;5.638;2024-03-06T05:56:42;5.20;99.90
51567;DHT22;37657;53.182;5.638;2024-03-06T05:59:08;5.20;99.90
51567;DHT22;37657;53.182;5.638;2024-03-06T06:01:36;5.10;99.90
51567;DHT22;37657;53.182;5.638;2024-03-06T06:04:02;5.20;99.90
51567;DHT22;37657;53.182;5.638;2024-03-06T06:06:28;5.10;99.90
51567;DHT22;37657;53.182;5.638;2024-03-06T06:08:54;5.10;99.90
51567;DHT22;37657;53.182;5.638;2024-03-06T06:11:19;5.30;99.90
51567;DHT22;37657;53.182;5.638;2024-03-06T06:13:45;5.20;99.90
51567;DHT22;37657;53.182;5.638;2024-03-06T06:16:12;5.30;99.90
51567;DHT22;37657;53.182;5.638;2024-03-06T06:18:40;5.30;99.90
51567;DHT22;37657;53.182;5.638;2024-03-06T06:21:07;5.60;99.90
51567;DHT22;37657;53.182;5.638;2024-03-06T06:23:36;5.20;99.90
51567;DHT22;37657;53.182;5.638;2024-03-06T06:26:02;5.40;99.90
51567;DHT22;37657;53.182;5.638;2024-03-06T06:28:28;5.30;99.90
51567;DHT22;37657;53.182;5.638;2024-03-06T06:30:53;5.50;99.90
51567;DHT22;37657;53.182;5.638;2024-03-06T06:33:19;5.80;99.90
51567;DHT22;37657;53.182;5.638;2024-03-06T06:35:46;5.90;99.90
51567;DHT22;37657;53.182;5.638;2024-03-06T06:38:12;5.50;99.90
51567;DHT22;37657;53.182;5.638;2024-03-06T06:40:37;5.60;99.90
51567;DHT22;37657;53.182;5.638;2024-03-06T06:43:03;5.70;99.90
51567;DHT22;37657;53.182;5.638;2024-03-06T06:45:29;5.70;99.90
51567;DHT22;37657;53.182;5.638;2024-03-06T06:47:54;5.70;99.90
51567;DHT22;37657;53.182;5.638;2024-03-06T06:50:20;5.80;99.90
51567;DHT22;37657;53.182;5.638;2024-03-06T06:52:48;5.90;99.90
51567;DHT22;37657;53.182;5.638;2024-03-06T06:55:14;5.80;99.90
51567;DHT22;37657;53.182;5.638;2024-03-06T06:57:40;6.60;99.90
51567;DHT22;37657;53.182;5.638;2024-03-06T07:00:06;5.90;99.90
51567;DHT22;37657;53.182;5.638;2024-03-06T07:02:42;5.90;99.90
51567;DHT22;37657;53.182;5.638;2024-03-06T07:05:09;6.10;99.90
51567;DHT22;37657;53.182;5.638;2024-03-06T07:07:36;5.90;99.90
51567;DHT22;37657;53.182;5.638;2024-03-06T07:10:02;6.00;99.90
51567;DHT22;37657;53.182;5.638;2024-03-06T07:12:28;5.90;99.90
51567;DHT22;37657;53.182;5.638;2024-03-06T07:14:54;6.00;99.90
51567;DHT22;37657;53.182;5.638;2024-03-06T07:17:20;6.10;99.90
51567;DHT22;37657;53.182;5.638;2024-03-06T07:19:45;6.00;99.90
51567;DHT22;37657;53.182;5.638;2024-03-06T07:22:11;6.00;99.90
51567;DHT22;37657;53.182;5.638;2024-03-06T07:24:36;6.00;99.90
51567;DHT22;37657;53.182;5.638;2024-03-06T07:27:02;6.00;99.90
51567;DHT22;37657;53.182;5.638;2024-03-06T07:29:28;6.10;99.90
51567;DHT22;37657;53.182;5.638;2024-03-06T07:31:54;6.00;99.90
51567;DHT22;37657;53.182;5.638;2024-03-06T07:34:20;6.00;99.90
51567;DHT22;37657;53.182;5.638;2024-03-06T07:36:47;6.20;99.90
51567;DHT22;37657;53.182;5.638;2024-03-06T07:39:15;6.00;99.90
51567;DHT22;37657;53.182;5.638;2024-03-06T07:41:41;6.10;99.90
51567;DHT22;37657;53.182;5.638;2024-03-06T07:44:08;6.20;99.90
51567;DHT22;37657;53.182;5.638;2024-03-06T07:46:34;6.10;99.90
51567;DHT22;37657;53.182;5.638;2024-03-06T07:49:00;6.40;99.90
51567;DHT22;37657;53.182;5.638;2024-03-06T07:51:29;6.10;99.90
51567;DHT22;37657;53.182;5.638;2024-03-06T07:53:55;6.10;99.90
51567;DHT22;37657;53.182;5.638;2024-03-06T07:56:21;6.10;99.90
51567;DHT22;37657;53.182;5.638;2024-03-06T07:58:47;6.10;99.90
51567;DHT22;37657;53.182;5.638;2024-03-06T08:01:12;6.10;99.90
51567;DHT22;37657;53.182;5.638;2024-03-06T08:03:39;6.10;99.90
51567;DHT22;37657;53.182;5.638;2024-03-06T08:06:06;6.20;99.90
51567;DHT22;37657;53.182;5.638;2024-03-06T08:08:31;6.20;99.90
51567;DHT22;37657;53.182;5.638;2024-03-06T08:10:57;6.30;99.90
51567;DHT22;37657;53.182;5.638;2024-03-06T08:13:23;6.20;99.90
51567;DHT22;37657;53.182;5.638;2024-03-06T08:15:48;6.40;99.90
51567;DHT22;37657;53.182;5.638;2024-03-06T08:18:14;6.20;99.90
51567;DHT22;37657;53.182;5.638;2024-03-06T08:20:40;6.20;99.90
51567;DHT22;37657;53.182;5.638;2024-03-06T08:23:07;6.20;99.90
51567;DHT22;37657;53.182;5.638;2024-03-06T08:25:33;6.30;99.90
51567;DHT22;37657;53.182;5.638;2024-03-06T08:27:59;6.20;99.90
51567;DHT22;37657;53.182;5.638;2024-03-06T08:30:24;6.30;99.90
51567;DHT22;37657;53.182;5.638;2024-03-06T08:32:51;6.30;99.90
51567;DHT22;37657;53.182;5.638;2024-03-06T08:35:17;6.30;99.90
51567;DHT22;37657;53.182;5.638;2024-03-06T08:37:45;6.30;99.90
51567;DHT22;37657;53.182;5.638;2024-03-06T08:40:11;6.30;99.90
51567;DHT22;37657;53.182;5.638;2024-03-06T08:42:49;6.30;99.90
51567;DHT22;37657;53.182;5.638;2024-03-06T08:45:16;6.30;99.90
51567;DHT22;37657;53.182;5.638;2024-03-06T08:47:42;6.30;99.90
51567;DHT22;37657;53.182;5.638;2024-03-06T08:50:09;6.30;99.90
51567;DHT22;37657;53.182;5.638;2024-03-06T08:52:35;6.30;99.90
51567;DHT22;37657;53.182;5.638;2024-03-06T08:55:02;6.30;99.90
51567;DHT22;37657;53.182;5.638;2024-03-06T08:57:32;6.30;99.90
51567;DHT22;37657;53.182;5.638;2024-03-06T08:59:58;6.40;99.90
51567;DHT22;37657;53.182;5.638;2024-03-06T09:02:24;6.40;99.90
51567;DHT22;37657;53.182;5.638;2024-03-06T09:04:49;6.40;99.90
51567;DHT22;37657;53.182;5.638;2024-03-06T09:07:18;6.20;99.90
51567;DHT22;37657;53.182;5.638;2024-03-06T09:09:45;6.30;99.90
51567;DHT22;37657;53.182;5.638;2024-03-06T09:12:11;6.40;99.90
51567;DHT22;37657;53.182;5.638;2024-03-06T09:14:40;6.40;99.90
51567;DHT22;37657;53.182;5.638;2024-03-06T09:17:07;6.30;99.90
51567;DHT22;37657;53.182;5.638;2024-03-06T09:19:36;6.20;99.90
51567;DHT22;37657;53.182;5.638;2024-03-06T09:22:01;6.20;99.90
51567;DHT22;37657;53.182;5.638;2024-03-06T09:24:28;6.30;99.90
51567;DHT22;37657;53.182;5.638;2024-03-06T09:26:54;6.20;99.90
51567;DHT22;37657;53.182;5.638;2024-03-06T09:29:20;6.20;99.90
51567;DHT22;37657;53.182;5.638;2024-03-06T09:31:46;6.30;99.90
51567;DHT22;37657;53.182;5.638;2024-03-06T09:34:13;6.30;99.90
51567;DHT22;37657;53.182;5.638;2024-03-06T09:36:48;6.30;99.90
51567;DHT22;37657;53.182;5.638;2024-03-06T09:39:16;6.30;99.90
51567;DHT22;37657;53.182;5.638;2024-03-06T09:41:46;6.40;99.90
51567;DHT22;37657;53.182;5.638;2024-03-06T09:44:15;6.40;99.90
51567;DHT22;37657;53.182;5.638;2024-03-06T09:46:44;6.40;99.90
51567;DHT22;37657;53.182;5.638;2024-03-06T09:49:15;6.40;99.90
51567;DHT22;37657;53.182;5.638;2024-03-06T09:51:46;6.40;99.90
51567;DHT22;37657;53.182;5.638;2024-03-06T09:54:13;6.50;99.90
51567;DHT22;37657;53.182;5.638;2024-03-06T09:56:41;6.40;99.90
51567;DHT22;37657;53.182;5.638;2024-03-06T09:59:09;6.50;99.90
51567;DHT22;37657;53.182;5.638;2024-03-06T10:01:38;6.50;99.90
51567;DHT22;37657;53.182;5.638;2024-03-06T10:04:22;6.50;99.90
51567;DHT22;37657;53.182;5.638;2024-03-06T10:06:48;6.60;99.90
51567;DHT22;37657;53.182;5.638;2024-03-06T10:09:18;6.50;99.90
51567;DHT22;37657;53.182;5.638;2024-03-06T10:11:44;6.60;99.90
51567;DHT22;37657;53.182;5.638;2024-03-06T10:14:11;6.60;99.90
51567;DHT22;37657;53.182;5.638;2024-03-06T10:16:37;6.60;99.90
51567;DHT22;37657;53.182;5.638;2024-03-06T10:19:19;6.60;99.90
51567;DHT22;37657;53.182;5.638;2024-03-06T10:21:47;6.60;99.90
51567;DHT22;37657;53.182;5.638;2024-03-06T10:24:29;6.60;99.90
51567;DHT22;37657;53.182;5.638;2024-03-06T10:26:56;6.60;99.90
51567;DHT22;37657;53.182;5.638;2024-03-06T10:29:25;6.50;99.90
51567;DHT22;37657;53.182;5.638;2024-03-06T10:31:53;6.70;99.90
51567;DHT22;37657;53.182;5.638;2024-03-06T10:34:20;6.50;99.90
51567;DHT22;37657;53.182;5.638;2024-03-06T10:39:20;6.60;99.90
51567;DHT22;37657;53.182;5.638;2024-03-06T10:41:46;6.60;99.90
51567;DHT22;37657;53.182;5.638;2024-03-06T10:44:16;6.60;99.90
51567;DHT22;37657;53.182;5.638;2024-03-06T10:46:44;6.70;99.90
51567;DHT22;37657;53.182;5.638;2024-03-06T10:49:12;6.50;99.90
51567;DHT22;37657;53.182;5.638;2024-03-06T10:51:44;6.70;99.90
51567;DHT22;37657;53.182;5.638;2024-03-06T10:54:13;6.70;99.90
51567;DHT22;37657;53.182;5.638;2024-03-06T10:56:40;6.60;99.90
51567;DHT22;37657;53.182;5.638;2024-03-06T10:59:13;6.60;99.90
51567;DHT22;37657;53.182;5.638;2024-03-06T11:01:41;6.70;99.90
51567;DHT22;37657;53.182;5.638;2024-03-06T11:04:09;6.60;99.90
51567;DHT22;37657;53.182;5.638;2024-03-06T11:06:37;6.60;99.90
51567;DHT22;37657;53.182;5.638;2024-03-06T11:09:03;6.70;99.90
51567;DHT22;37657;53.182;5.638;2024-03-06T11:11:29;6.80;99.90
51567;DHT22;37657;53.182;5.638;2024-03-06T11:14:06;6.70;99.90
51567;DHT22;37657;53.182;5.638;2024-03-06T11:16:57;6.70;99.90
51567;DHT22;37657;53.182;5.638;2024-03-06T11:19:24;6.80;99.90
51567;DHT22;37657;53.182;5.638;2024-03-06T11:21:49;6.80;99.90
51567;DHT22;37657;53.182;5.638;2024-03-06T11:24:19;6.90;99.90
51567;DHT22;37657;53.182;5.638;2024-03-06T11:26:49;6.90;99.90
51567;DHT22;37657;53.182;5.638;2024-03-06T11:29:19;6.90;99.90
51567;DHT22;37657;53.182;5.638;2024-03-06T11:34:27;7.00;99.90
51567;DHT22;37657;53.182;5.638;2024-03-06T11:36:59;7.00;99.90
51567;DHT22;37657;53.182;5.638;2024-03-06T11:39:28;7.00;99.90
51567;DHT22;37657;53.182;5.638;2024-03-06T11:41:59;7.10;99.90
51567;DHT22;37657;53.182;5.638;2024-03-06T11:44:26;7.20;99.90
51567;DHT22;37657;53.182;5.638;2024-03-06T11:47:04;7.20;99.90
51567;DHT22;37657;53.182;5.638;2024-03-06T11:49:32;7.20;99.90
51567;DHT22;37657;53.182;5.638;2024-03-06T11:52:09;7.20;99.90
51567;DHT22;37657;53.182;5.638;2024-03-06T11:54:38;7.30;99.90
51567;DHT22;37657;53.182;5.638;2024-03-06T11:57:05;7.30;99.90
51567;DHT22;37657;53.182;5.638;2024-03-06T11:59:33;7.30;99.90
51567;DHT22;37657;53.182;5.638;2024-03-06T12:02:01;7.30;99.90
51567;DHT22;37657;53.182;5.638;2024-03-06T12:04:27;7.40;99.90
51567;DHT22;37657;53.182;5.638;2024-03-06T12:06:57;7.80;99.90
51567;DHT22;37657;53.182;5.638;2024-03-06T12:09:24;7.50;99.90
51567;DHT22;37657;53.182;5.638;2024-03-06T12:11:50;7.50;99.90
51567;DHT22;37657;53.182;5.638;2024-03-06T12:14:20;7.60;99.90
51567;DHT22;37657;53.182;5.638;2024-03-06T12:17:01;7.70;99.90
51567;DHT22;37657;53.182;5.638;2024-03-06T12:19:35;7.70;99.90
51567;DHT22;37657;53.182;5.638;2024-03-06T12:22:04;7.70;99.90
51567;DHT22;37657;53.182;5.638;2024-03-06T12:24:30;7.70;99.90
51567;DHT22;37657;53.182;5.638;2024-03-06T12:27:04;7.70;99.90
51567;DHT22;37657;53.182;5.638;2024-03-06T12:29:31;7.70;99.90
51567;DHT22;37657;53.182;5.638;2024-03-06T12:31:58;7.80;99.90
51567;DHT22;37657;53.182;5.638;2024-03-06T12:34:24;7.80;99.90
51567;DHT22;37657;53.182;5.638;2024-03-06T12:36:49;7.80;99.90
51567;DHT22;37657;53.182;5.638;2024-03-06T12:39:16;7.80;99.90
51567;DHT22;37657;53.182;5.638;2024-03-06T12:41:46;7.90;99.90
51567;DHT22;37657;53.182;5.638;2024-03-06T12:44:13;8.00;99.90
51567;DHT22;37657;53.182;5.638;2024-03-06T12:46:38;7.90;99.90
51567;DHT22;37657;53.182;5.638;2024-03-06T12:49:04;7.90;99.90
51567;DHT22;37657;53.182;5.638;2024-03-06T12:51:29;8.00;99.90
51567;DHT22;37657;53.182;5.638;2024-03-06T12:53:55;8.00;99.90
51567;DHT22;37657;53.182;5.638;2024-03-06T12:56:21;8.10;99.90
51567;DHT22;37657;53.182;5.638;2024-03-06T12:58:46;8.10;99.90
51567;DHT22;37657;53.182;5.638;2024-03-06T13:01:12;8.10;99.90
51567;DHT22;37657;53.182;5.638;2024-03-06T13:03:38;8.20;99.90
51567;DHT22;37657;53.182;5.638;2024-03-06T13:06:04;8.20;99.90
51567;DHT22;37657;53.182;5.638;2024-03-06T13:08:30;8.20;99.90
51567;DHT22;37657;53.182;5.638;2024-03-06T13:10:56;8.30;99.90
51567;DHT22;37657;53.182;5.638;2024-03-06T13:13:22;8.30;99.90
51567;DHT22;37657;53.182;5.638;2024-03-06T13:15:52;8.30;99.90
51567;DHT22;37657;53.182;5.638;2024-03-06T13:18:18;8.30;99.90
51567;DHT22;37657;53.182;5.638;2024-03-06T13:20:44;8.30;99.90
51567;DHT22;37657;53.182;5.638;2024-03-06T13:23:10;8.30;99.90
51567;DHT22;37657;53.182;5.638;2024-03-06T13:25:36;8.40;99.90
51567;DHT22;37657;53.182;5.638;2024-03-06T13:28:02;8.40;99.90
51567;DHT22;37657;53.182;5.638;2024-03-06T13:30:28;8.40;99.90
51567;DHT22;37657;53.182;5.638;2024-03-06T13:32:54;8.40;99.90
51567;DHT22;37657;53.182;5.638;2024-03-06T13:35:20;8.40;99.90
51567;DHT22;37657;53.182;5.638;2024-03-06T13:37:46;8.40;99.90
51567;DHT22;37657;53.182;5.638;2024-03-06T13:40:12;8.40;99.90
51567;DHT22;37657;53.182;5.638;2024-03-06T13:42:39;8.50;99.90
51567;DHT22;37657;53.182;5.638;2024-03-06T13:45:06;8.50;99.90
51567;DHT22;37657;53.182;5.638;2024-03-06T13:47:42;8.50;99.90
51567;DHT22;37657;53.182;5.638;2024-03-06T13:50:09;8.50;99.90
51567;DHT22;37657;53.182;5.638;2024-03-06T13:52:35;8.50;99.90
51567;DHT22;37657;53.182;5.638;2024-03-06T13:55:01;8.50;99.90
51567;DHT22;37657;53.182;5.638;2024-03-06T13:57:33;8.50;99.90
51567;DHT22;37657;53.182;5.638;2024-03-06T14:00:01;8.50;99.90
51567;DHT22;37657;53.182;5.638;2024-03-06T14:02:26;8.50;99.90
51567;DHT22;37657;53.182;5.638;2024-03-06T14:04:52;8.40;99.90
51567;DHT22;37657;53.182;5.638;2024-03-06T14:07:18;8.40;99.90
51567;DHT22;37657;53.182;5.638;2024-03-06T14:09:43;8.30;99.90
51567;DHT22;37657;53.182;5.638;2024-03-06T14:12:09;8.30;99.90
51567;DHT22;37657;53.182;5.638;2024-03-06T14:14:35;8.30;99.90
51567;DHT22;37657;53.182;5.638;2024-03-06T14:17:00;8.40;99.90
51567;DHT22;37657;53.182;5.638;2024-03-06T14:19:26;8.40;99.90
51567;DHT22;37657;53.182;5.638;2024-03-06T14:21:51;8.40;99.90
51567;DHT22;37657;53.182;5.638;2024-03-06T14:24:17;8.40;99.90
51567;DHT22;37657;53.182;5.638;2024-03-06T14:26:44;8.40;99.90
51567;DHT22;37657;53.182;5.638;2024-03-06T14:29:09;8.40;99.90
51567;DHT22;37657;53.182;5.638;2024-03-06T14:31:35;8.50;99.90
51567;DHT22;37657;53.182;5.638;2024-03-06T14:34:00;8.40;99.90
51567;DHT22;37657;53.182;5.638;2024-03-06T14:36:26;8.50;99.90
51567;DHT22;37657;53.182;5.638;2024-03-06T14:38:52;8.40;99.90
51567;DHT22;37657;53.182;5.638;2024-03-06T14:41:19;8.50;99.90
51567;DHT22;37657;53.182;5.638;2024-03-06T14:43:44;8.60;99.90
51567;DHT22;37657;53.182;5.638;2024-03-06T14:46:11;8.60;99.90
51567;DHT22;37657;53.182;5.638;2024-03-06T14:48:38;8.70;99.90
51567;DHT22;37657;53.182;5.638;2024-03-06T14:51:03;8.70;99.90
51567;DHT22;37657;53.182;5.638;2024-03-06T14:53:29;8.70;99.90
51567;DHT22;37657;53.182;5.638;2024-03-06T14:55:56;8.80;99.90
51567;DHT22;37657;53.182;5.638;2024-03-06T14:58:22;8.90;99.90
51567;DHT22;37657;53.182;5.638;2024-03-06T15:00:49;9.00;99.90
51567;DHT22;37657;53.182;5.638;2024-03-06T15:03:15;9.10;99.90
51567;DHT22;37657;53.182;5.638;2024-03-06T15:05:40;9.20;99.90
51567;DHT22;37657;53.182;5.638;2024-03-06T15:08:06;9.20;99.90
51567;DHT22;37657;53.182;5.638;2024-03-06T15:10:32;9.30;99.90
51567;DHT22;37657;53.182;5.638;2024-03-06T15:13:00;9.30;99.90
51567;DHT22;37657;53.182;5.638;2024-03-06T15:15:26;9.40;99.90
51567;DHT22;37657;53.182;5.638;2024-03-06T15:17:51;9.40;99.90
51567;DHT22;37657;53.182;5.638;2024-03-06T15:20:17;9.30;99.90
51567;DHT22;37657;53.182;5.638;2024-03-06T15:22:46;9.20;99.90
51567;DHT22;37657;53.182;5.638;2024-03-06T15:25:13;9.20;99.90
51567;DHT22;37657;53.182;5.638;2024-03-06T15:27:39;9.10;99.90
51567;DHT22;37657;53.182;5.638;2024-03-06T15:30:06;9.20;99.90
51567;DHT22;37657;53.182;5.638;2024-03-06T15:32:36;9.10;99.90
51567;DHT22;37657;53.182;5.638;2024-03-06T15:35:02;9.10;99.90
51567;DHT22;37657;53.182;5.638;2024-03-06T15:37:29;9.20;99.90
51567;DHT22;37657;53.182;5.638;2024-03-06T15:39:55;9.10;99.90
51567;DHT22;37657;53.182;5.638;2024-03-06T15:42:22;9.20;99.90
51567;DHT22;37657;53.182;5.638;2024-03-06T15:44:49;9.10;99.90
51567;DHT22;37657;53.182;5.638;2024-03-06T15:47:17;9.60;99.90